sensor_id;sensor_type;location;lat;lon;timestamp;P1;durP1;ratioP1;P2;durP2;ratioP2
8683;SDS011;4379;59.744;18.206;2023-08-30T00:00:58;1.85;;;1.75;;
8683;SDS011;4379;59.744;18.206;2023-08-30T00:03:26;3.47;;;2.10;;
8683;SDS011;4379;59.744;18.206;2023-08-30T00:05:53;3.47;;;2.45;;
8683;SDS011;4379;59.744;18.206;2023-08-30T00:08:22;2.40;;;1.90;;
8683;SDS011;4379;59.744;18.206;2023-08-30T00:10:49;3.38;;;2.13;;
8683;SDS011;4379;59.744;18.206;2023-08-30T00:13:17;2.50;;;2.28;;
8683;SDS011;4379;59.744;18.206;2023-08-30T00:15:44;3.08;;;1.92;;
8683;SDS011;4379;59.744;18.206;2023-08-30T00:18:11;2.25;;;1.88;;
8683;SDS011;4379;59.744;18.206;2023-08-30T00:20:39;3.08;;;2.33;;
8683;SDS011;4379;59.744;18.206;2023-08-30T00:23:06;3.10;;;2.15;;
8683;SDS011;4379;59.744;18.206;2023-08-30T00:25:34;4.68;;;2.13;;
8683;SDS011;4379;59.744;18.206;2023-08-30T00:28:01;2.08;;;1.98;;
8683;SDS011;4379;59.744;18.206;2023-08-30T00:30:29;3.22;;;2.22;;
8683;SDS011;4379;59.744;18.206;2023-08-30T00:32:56;2.20;;;2.00;;
8683;SDS011;4379;59.744;18.206;2023-08-30T00:35:23;3.03;;;1.88;;
8683;SDS011;4379;59.744;18.206;2023-08-30T00:37:51;1.95;;;1.85;;
8683;SDS011;4379;59.744;18.206;2023-08-30T00:40:22;2.28;;;2.05;;
8683;SDS011;4379;59.744;18.206;2023-08-30T00:42:53;2.20;;;2.00;;
8683;SDS011;4379;59.744;18.206;2023-08-30T00:45:20;2.53;;;2.30;;
8683;SDS011;4379;59.744;18.206;2023-08-30T00:47:48;3.03;;;1.92;;
8683;SDS011;4379;59.744;18.206;2023-08-30T00:50:15;2.28;;;1.95;;
8683;SDS011;4379;59.744;18.206;2023-08-30T00:52:43;4.45;;;2.03;;
8683;SDS011;4379;59.744;18.206;2023-08-30T00:55:12;2.60;;;1.80;;
8683;SDS011;4379;59.744;18.206;2023-08-30T00:57:42;2.30;;;2.10;;
8683;SDS011;4379;59.744;18.206;2023-08-30T01:00:12;2.15;;;1.95;;
8683;SDS011;4379;59.744;18.206;2023-08-30T01:02:39;2.20;;;2.10;;
8683;SDS011;4379;59.744;18.206;2023-08-30T01:05:07;1.92;;;1.83;;
8683;SDS011;4379;59.744;18.206;2023-08-30T01:07:36;2.03;;;1.83;;
8683;SDS011;4379;59.744;18.206;2023-08-30T01:10:03;3.42;;;2.30;;
8683;SDS011;4379;59.744;18.206;2023-08-30T01:12:34;2.60;;;2.00;;
8683;SDS011;4379;59.744;18.206;2023-08-30T01:17:44;3.60;;;2.20;;
8683;SDS011;4379;59.744;18.206;2023-08-30T01:20:17;2.00;;;1.90;;
8683;SDS011;4379;59.744;18.206;2023-08-30T01:27:42;2.20;;;2.10;;
8683;SDS011;4379;59.744;18.206;2023-08-30T01:30:12;2.17;;;1.90;;
8683;SDS011;4379;59.744;18.206;2023-08-30T01:32:42;2.25;;;1.90;;
8683;SDS011;4379;59.744;18.206;2023-08-30T01:35:10;2.30;;;1.80;;
8683;SDS011;4379;59.744;18.206;2023-08-30T01:37:45;3.00;;;2.20;;
8683;SDS011;4379;59.744;18.206;2023-08-30T01:40:16;2.50;;;2.30;;
8683;SDS011;4379;59.744;18.206;2023-08-30T01:42:44;2.00;;;1.77;;
8683;SDS011;4379;59.744;18.206;2023-08-30T01:45:13;1.88;;;1.77;;
8683;SDS011;4379;59.744;18.206;2023-08-30T01:47:42;2.22;;;2.10;;
8683;SDS011;4379;59.744;18.206;2023-08-30T01:50:11;2.53;;;2.08;;
8683;SDS011;4379;59.744;18.206;2023-08-30T01:52:39;2.15;;;1.83;;
8683;SDS011;4379;59.744;18.206;2023-08-30T01:55:07;2.75;;;2.08;;
8683;SDS011;4379;59.744;18.206;2023-08-30T01:57:36;2.63;;;2.30;;
8683;SDS011;4379;59.744;18.206;2023-08-30T02:00:04;1.95;;;1.85;;
8683;SDS011;4379;59.744;18.206;2023-08-30T02:02:33;1.92;;;1.83;;
8683;SDS011;4379;59.744;18.206;2023-08-30T02:05:01;2.65;;;1.90;;
8683;SDS011;4379;59.744;18.206;2023-08-30T02:07:32;3.38;;;2.03;;
8683;SDS011;4379;59.744;18.206;2023-08-30T02:10:08;2.10;;;1.90;;
8683;SDS011;4379;59.744;18.206;2023-08-30T02:12:48;2.40;;;2.03;;
8683;SDS011;4379;59.744;18.206;2023-08-30T02:15:17;2.13;;;2.00;;
8683;SDS011;4379;59.744;18.206;2023-08-30T02:17:45;2.28;;;2.17;;
8683;SDS011;4379;59.744;18.206;2023-08-30T02:20:14;2.00;;;1.90;;
8683;SDS011;4379;59.744;18.206;2023-08-30T02:22:46;2.28;;;2.10;;
8683;SDS011;4379;59.744;18.206;2023-08-30T02:25:16;2.47;;;2.30;;
8683;SDS011;4379;59.744;18.206;2023-08-30T02:27:45;2.67;;;2.17;;
8683;SDS011;4379;59.744;18.206;2023-08-30T02:30:12;2.25;;;2.05;;
8683;SDS011;4379;59.744;18.206;2023-08-30T02:32:40;2.10;;;2.00;;
8683;SDS011;4379;59.744;18.206;2023-08-30T02:35:07;2.22;;;2.13;;
8683;SDS011;4379;59.744;18.206;2023-08-30T02:37:35;2.47;;;2.08;;
8683;SDS011;4379;59.744;18.206;2023-08-30T02:40:03;2.15;;;2.05;;
8683;SDS011;4379;59.744;18.206;2023-08-30T02:42:31;2.20;;;2.10;;
8683;SDS011;4379;59.744;18.206;2023-08-30T02:45:00;2.22;;;2.03;;
8683;SDS011;4379;59.744;18.206;2023-08-30T02:47:27;2.05;;;1.90;;
8683;SDS011;4379;59.744;18.206;2023-08-30T02:49:55;2.25;;;1.80;;
8683;SDS011;4379;59.744;18.206;2023-08-30T02:52:22;2.30;;;2.10;;
8683;SDS011;4379;59.744;18.206;2023-08-30T02:54:49;3.38;;;2.22;;
8683;SDS011;4379;59.744;18.206;2023-08-30T02:57:17;2.05;;;1.83;;
8683;SDS011;4379;59.744;18.206;2023-08-30T02:59:44;2.55;;;2.10;;
8683;SDS011;4379;59.744;18.206;2023-08-30T03:02:12;2.00;;;1.90;;
8683;SDS011;4379;59.744;18.206;2023-08-30T03:04:39;3.00;;;2.00;;
8683;SDS011;4379;59.744;18.206;2023-08-30T03:07:07;3.17;;;1.98;;
8683;SDS011;4379;59.744;18.206;2023-08-30T03:09:37;2.15;;;2.00;;
8683;SDS011;4379;59.744;18.206;2023-08-30T03:12:06;2.15;;;2.05;;
8683;SDS011;4379;59.744;18.206;2023-08-30T03:14:36;2.67;;;2.10;;
8683;SDS011;4379;59.744;18.206;2023-08-30T03:17:03;3.45;;;2.17;;
8683;SDS011;4379;59.744;18.206;2023-08-30T03:19:31;1.90;;;1.80;;
8683;SDS011;4379;59.744;18.206;2023-08-30T03:21:58;2.67;;;2.50;;
8683;SDS011;4379;59.744;18.206;2023-08-30T03:24:26;1.90;;;1.80;;
8683;SDS011;4379;59.744;18.206;2023-08-30T03:26:54;2.08;;;1.75;;
8683;SDS011;4379;59.744;18.206;2023-08-30T03:29:21;2.17;;;2.08;;
8683;SDS011;4379;59.744;18.206;2023-08-30T03:31:49;3.63;;;2.42;;
8683;SDS011;4379;59.744;18.206;2023-08-30T03:34:16;2.30;;;2.10;;
8683;SDS011;4379;59.744;18.206;2023-08-30T03:36:44;2.88;;;2.20;;
8683;SDS011;4379;59.744;18.206;2023-08-30T03:39:11;3.55;;;2.00;;
8683;SDS011;4379;59.744;18.206;2023-08-30T03:41:39;3.63;;;2.17;;
8683;SDS011;4379;59.744;18.206;2023-08-30T03:44:07;3.40;;;2.35;;
8683;SDS011;4379;59.744;18.206;2023-08-30T03:46:34;2.20;;;2.10;;
8683;SDS011;4379;59.744;18.206;2023-08-30T03:49:01;2.72;;;2.35;;
8683;SDS011;4379;59.744;18.206;2023-08-30T03:51:33;2.35;;;2.15;;
8683;SDS011;4379;59.744;18.206;2023-08-30T03:54:00;2.22;;;2.13;;
8683;SDS011;4379;59.744;18.206;2023-08-30T03:56:28;3.20;;;1.92;;
8683;SDS011;4379;59.744;18.206;2023-08-30T03:58:55;2.33;;;2.22;;
8683;SDS011;4379;59.744;18.206;2023-08-30T04:01:23;2.20;;;2.10;;
8683;SDS011;4379;59.744;18.206;2023-08-30T04:03:50;2.90;;;2.25;;
8683;SDS011;4379;59.744;18.206;2023-08-30T04:06:18;3.67;;;2.40;;
8683;SDS011;4379;59.744;18.206;2023-08-30T04:08:45;3.08;;;1.92;;
8683;SDS011;4379;59.744;18.206;2023-08-30T04:11:13;2.28;;;2.05;;
8683;SDS011;4379;59.744;18.206;2023-08-30T04:13:40;2.15;;;1.95;;
8683;SDS011;4379;59.744;18.206;2023-08-30T04:16:08;2.00;;;1.90;;
8683;SDS011;4379;59.744;18.206;2023-08-30T04:18:35;2.30;;;2.10;;
8683;SDS011;4379;59.744;18.206;2023-08-30T04:21:03;4.20;;;2.42;;
8683;SDS011;4379;59.744;18.206;2023-08-30T04:23:33;2.70;;;2.50;;
8683;SDS011;4379;59.744;18.206;2023-08-30T04:26:00;4.00;;;2.60;;
8683;SDS011;4379;59.744;18.206;2023-08-30T04:28:28;3.63;;;2.33;;
8683;SDS011;4379;59.744;18.206;2023-08-30T04:30:56;3.55;;;2.30;;
8683;SDS011;4379;59.744;18.206;2023-08-30T04:33:26;2.30;;;2.10;;
8683;SDS011;4379;59.744;18.206;2023-08-30T04:35:54;2.60;;;2.25;;
8683;SDS011;4379;59.744;18.206;2023-08-30T04:38:22;1.95;;;1.85;;
8683;SDS011;4379;59.744;18.206;2023-08-30T04:40:49;4.05;;;2.33;;
8683;SDS011;4379;59.744;18.206;2023-08-30T04:43:16;2.40;;;2.20;;
8683;SDS011;4379;59.744;18.206;2023-08-30T04:45:46;2.60;;;2.40;;
8683;SDS011;4379;59.744;18.206;2023-08-30T04:48:14;2.63;;;2.08;;
8683;SDS011;4379;59.744;18.206;2023-08-30T04:50:42;2.22;;;2.10;;
8683;SDS011;4379;59.744;18.206;2023-08-30T04:53:09;1.90;;;1.80;;
8683;SDS011;4379;59.744;18.206;2023-08-30T04:55:37;2.55;;;2.10;;
8683;SDS011;4379;59.744;18.206;2023-08-30T04:58:04;2.40;;;2.30;;
8683;SDS011;4379;59.744;18.206;2023-08-30T05:00:32;3.03;;;2.67;;
8683;SDS011;4379;59.744;18.206;2023-08-30T05:03:00;4.97;;;2.35;;
8683;SDS011;4379;59.744;18.206;2023-08-30T05:05:28;2.55;;;2.22;;
8683;SDS011;4379;59.744;18.206;2023-08-30T05:07:55;2.83;;;2.33;;
8683;SDS011;4379;59.744;18.206;2023-08-30T05:10:23;3.03;;;2.50;;
8683;SDS011;4379;59.744;18.206;2023-08-30T05:12:50;2.50;;;2.30;;
8683;SDS011;4379;59.744;18.206;2023-08-30T05:15:18;2.40;;;2.20;;
8683;SDS011;4379;59.744;18.206;2023-08-30T05:17:46;3.55;;;2.30;;
8683;SDS011;4379;59.744;18.206;2023-08-30T05:20:13;2.47;;;2.38;;
8683;SDS011;4379;59.744;18.206;2023-08-30T05:22:41;2.20;;;2.10;;
8683;SDS011;4379;59.744;18.206;2023-08-30T05:25:09;2.67;;;2.47;;
8683;SDS011;4379;59.744;18.206;2023-08-30T05:27:36;2.60;;;2.40;;
8683;SDS011;4379;59.744;18.206;2023-08-30T05:30:04;3.75;;;2.45;;
8683;SDS011;4379;59.744;18.206;2023-08-30T05:32:32;3.50;;;2.47;;
8683;SDS011;4379;59.744;18.206;2023-08-30T05:35:00;3.33;;;2.40;;
8683;SDS011;4379;59.744;18.206;2023-08-30T05:37:27;2.70;;;2.50;;
8683;SDS011;4379;59.744;18.206;2023-08-30T05:39:54;2.47;;;2.33;;
8683;SDS011;4379;59.744;18.206;2023-08-30T05:42:23;2.30;;;2.20;;
8683;SDS011;4379;59.744;18.206;2023-08-30T05:44:52;2.67;;;2.53;;
8683;SDS011;4379;59.744;18.206;2023-08-30T05:47:20;3.05;;;2.85;;
8683;SDS011;4379;59.744;18.206;2023-08-30T05:49:48;2.70;;;2.60;;
8683;SDS011;4379;59.744;18.206;2023-08-30T05:52:15;3.08;;;2.88;;
8683;SDS011;4379;59.744;18.206;2023-08-30T05:54:43;3.60;;;3.10;;
8683;SDS011;4379;59.744;18.206;2023-08-30T05:57:11;3.28;;;2.88;;
8683;SDS011;4379;59.744;18.206;2023-08-30T05:59:38;3.00;;;2.90;;
8683;SDS011;4379;59.744;18.206;2023-08-30T06:02:06;2.70;;;2.60;;
8683;SDS011;4379;59.744;18.206;2023-08-30T06:04:33;2.80;;;2.60;;
8683;SDS011;4379;59.744;18.206;2023-08-30T06:07:00;2.80;;;2.70;;
8683;SDS011;4379;59.744;18.206;2023-08-30T06:09:28;3.05;;;2.85;;
8683;SDS011;4379;59.744;18.206;2023-08-30T06:11:55;3.20;;;2.95;;
8683;SDS011;4379;59.744;18.206;2023-08-30T06:14:22;2.95;;;2.85;;
8683;SDS011;4379;59.744;18.206;2023-08-30T06:16:50;2.70;;;2.58;;
8683;SDS011;4379;59.744;18.206;2023-08-30T06:19:17;2.97;;;2.78;;
8683;SDS011;4379;59.744;18.206;2023-08-30T06:21:45;2.95;;;2.75;;
8683;SDS011;4379;59.744;18.206;2023-08-30T06:24:12;3.10;;;3.00;;
8683;SDS011;4379;59.744;18.206;2023-08-30T06:26:40;3.30;;;3.10;;
8683;SDS011;4379;59.744;18.206;2023-08-30T06:29:07;3.10;;;3.00;;
8683;SDS011;4379;59.744;18.206;2023-08-30T06:31:35;3.15;;;3.00;;
8683;SDS011;4379;59.744;18.206;2023-08-30T06:34:03;3.10;;;2.80;;
8683;SDS011;4379;59.744;18.206;2023-08-30T06:36:31;4.07;;;3.00;;
8683;SDS011;4379;59.744;18.206;2023-08-30T06:38:58;2.92;;;2.60;;
8683;SDS011;4379;59.744;18.206;2023-08-30T06:41:26;3.03;;;2.47;;
8683;SDS011;4379;59.744;18.206;2023-08-30T06:43:53;2.45;;;2.35;;
8683;SDS011;4379;59.744;18.206;2023-08-30T06:46:21;2.63;;;2.42;;
8683;SDS011;4379;59.744;18.206;2023-08-30T06:48:48;2.20;;;2.10;;
8683;SDS011;4379;59.744;18.206;2023-08-30T06:51:16;2.45;;;2.35;;
8683;SDS011;4379;59.744;18.206;2023-08-30T06:53:43;2.38;;;2.25;;
8683;SDS011;4379;59.744;18.206;2023-08-30T06:56:11;2.38;;;2.17;;
8683;SDS011;4379;59.744;18.206;2023-08-30T06:58:38;2.83;;;2.63;;
8683;SDS011;4379;59.744;18.206;2023-08-30T07:01:06;2.42;;;2.33;;
8683;SDS011;4379;59.744;18.206;2023-08-30T07:03:33;2.60;;;2.50;;
8683;SDS011;4379;59.744;18.206;2023-08-30T07:06:01;2.63;;;2.53;;
8683;SDS011;4379;59.744;18.206;2023-08-30T07:08:28;3.15;;;2.65;;
8683;SDS011;4379;59.744;18.206;2023-08-30T07:10:56;2.13;;;2.03;;
8683;SDS011;4379;59.744;18.206;2023-08-30T07:13:23;2.78;;;2.58;;
8683;SDS011;4379;59.744;18.206;2023-08-30T07:15:51;2.33;;;2.22;;
8683;SDS011;4379;59.744;18.206;2023-08-30T07:18:18;2.58;;;2.40;;
8683;SDS011;4379;59.744;18.206;2023-08-30T07:20:46;2.50;;;2.40;;
8683;SDS011;4379;59.744;18.206;2023-08-30T07:23:14;3.30;;;2.47;;
8683;SDS011;4379;59.744;18.206;2023-08-30T07:25:41;2.40;;;2.30;;
8683;SDS011;4379;59.744;18.206;2023-08-30T07:28:09;2.30;;;2.13;;
8683;SDS011;4379;59.744;18.206;2023-08-30T07:30:38;2.38;;;2.10;;
8683;SDS011;4379;59.744;18.206;2023-08-30T07:33:05;2.38;;;2.20;;
8683;SDS011;4379;59.744;18.206;2023-08-30T07:35:33;2.45;;;2.35;;
8683;SDS011;4379;59.744;18.206;2023-08-30T07:38:01;2.00;;;1.90;;
8683;SDS011;4379;59.744;18.206;2023-08-30T07:40:29;2.40;;;2.20;;
8683;SDS011;4379;59.744;18.206;2023-08-30T07:42:57;2.00;;;1.90;;
8683;SDS011;4379;59.744;18.206;2023-08-30T07:45:25;2.45;;;2.30;;
8683;SDS011;4379;59.744;18.206;2023-08-30T07:47:53;1.83;;;1.73;;
8683;SDS011;4379;59.744;18.206;2023-08-30T07:50:21;1.80;;;1.70;;
8683;SDS011;4379;59.744;18.206;2023-08-30T07:52:48;1.80;;;1.70;;
8683;SDS011;4379;59.744;18.206;2023-08-30T07:55:16;3.40;;;2.00;;
8683;SDS011;4379;59.744;18.206;2023-08-30T07:57:43;1.98;;;1.70;;
8683;SDS011;4379;59.744;18.206;2023-08-30T08:00:11;2.45;;;1.90;;
8683;SDS011;4379;59.744;18.206;2023-08-30T08:02:39;2.20;;;1.90;;
8683;SDS011;4379;59.744;18.206;2023-08-30T08:05:08;1.70;;;1.60;;
8683;SDS011;4379;59.744;18.206;2023-08-30T08:07:37;2.17;;;1.67;;
8683;SDS011;4379;59.744;18.206;2023-08-30T08:10:06;1.83;;;1.73;;
8683;SDS011;4379;59.744;18.206;2023-08-30T08:12:34;1.80;;;1.70;;
8683;SDS011;4379;59.744;18.206;2023-08-30T08:15:02;2.08;;;1.98;;
8683;SDS011;4379;59.744;18.206;2023-08-30T08:17:30;2.15;;;2.05;;
8683;SDS011;4379;59.744;18.206;2023-08-30T08:19:57;2.17;;;2.08;;
8683;SDS011;4379;59.744;18.206;2023-08-30T08:22:25;2.13;;;1.92;;
8683;SDS011;4379;59.744;18.206;2023-08-30T08:24:53;2.00;;;1.90;;
8683;SDS011;4379;59.744;18.206;2023-08-30T08:27:24;1.83;;;1.73;;
8683;SDS011;4379;59.744;18.206;2023-08-30T08:29:52;2.35;;;2.15;;
8683;SDS011;4379;59.744;18.206;2023-08-30T08:32:20;1.70;;;1.70;;
8683;SDS011;4379;59.744;18.206;2023-08-30T08:34:47;1.85;;;1.70;;
8683;SDS011;4379;59.744;18.206;2023-08-30T08:37:14;1.52;;;1.42;;
8683;SDS011;4379;59.744;18.206;2023-08-30T08:39:41;1.25;;;1.25;;
8683;SDS011;4379;59.744;18.206;2023-08-30T08:42:09;1.50;;;1.40;;
8683;SDS011;4379;59.744;18.206;2023-08-30T08:44:38;1.50;;;1.50;;
8683;SDS011;4379;59.744;18.206;2023-08-30T08:47:06;1.45;;;1.45;;
8683;SDS011;4379;59.744;18.206;2023-08-30T08:49:34;2.28;;;1.35;;
8683;SDS011;4379;59.744;18.206;2023-08-30T08:52:01;1.20;;;1.10;;
8683;SDS011;4379;59.744;18.206;2023-08-30T08:54:45;1.50;;;1.40;;
8683;SDS011;4379;59.744;18.206;2023-08-30T08:57:13;1.10;;;1.10;;
8683;SDS011;4379;59.744;18.206;2023-08-30T08:59:40;1.30;;;1.30;;
8683;SDS011;4379;59.744;18.206;2023-08-30T09:02:08;1.45;;;1.38;;
8683;SDS011;4379;59.744;18.206;2023-08-30T09:04:40;1.08;;;1.08;;
8683;SDS011;4379;59.744;18.206;2023-08-30T09:07:08;1.30;;;1.25;;
8683;SDS011;4379;59.744;18.206;2023-08-30T09:09:35;1.17;;;1.08;;
8683;SDS011;4379;59.744;18.206;2023-08-30T09:12:03;1.20;;;1.10;;
8683;SDS011;4379;59.744;18.206;2023-08-30T09:14:31;1.33;;;1.10;;
8683;SDS011;4379;59.744;18.206;2023-08-30T09:16:59;1.00;;;1.00;;
8683;SDS011;4379;59.744;18.206;2023-08-30T09:19:28;1.20;;;1.20;;
8683;SDS011;4379;59.744;18.206;2023-08-30T09:21:57;0.90;;;0.90;;
8683;SDS011;4379;59.744;18.206;2023-08-30T09:24:36;1.20;;;1.20;;
8683;SDS011;4379;59.744;18.206;2023-08-30T09:27:07;1.10;;;1.10;;
8683;SDS011;4379;59.744;18.206;2023-08-30T09:29:35;1.00;;;1.00;;
8683;SDS011;4379;59.744;18.206;2023-08-30T09:32:03;1.08;;;1.08;;
8683;SDS011;4379;59.744;18.206;2023-08-30T09:34:30;0.95;;;0.95;;
8683;SDS011;4379;59.744;18.206;2023-08-30T09:36:58;0.90;;;0.90;;
8683;SDS011;4379;59.744;18.206;2023-08-30T09:39:30;1.50;;;1.42;;
8683;SDS011;4379;59.744;18.206;2023-08-30T09:41:59;5.97;;;1.35;;
8683;SDS011;4379;59.744;18.206;2023-08-30T09:44:29;1.33;;;1.23;;
8683;SDS011;4379;59.744;18.206;2023-08-30T09:46:56;1.00;;;1.00;;
8683;SDS011;4379;59.744;18.206;2023-08-30T09:49:26;2.10;;;1.10;;
8683;SDS011;4379;59.744;18.206;2023-08-30T09:51:54;1.88;;;1.30;;
8683;SDS011;4379;59.744;18.206;2023-08-30T09:54:24;1.10;;;1.10;;
8683;SDS011;4379;59.744;18.206;2023-08-30T09:56:55;1.42;;;1.00;;
8683;SDS011;4379;59.744;18.206;2023-08-30T09:59:26;1.25;;;1.15;;
8683;SDS011;4379;59.744;18.206;2023-08-30T10:01:54;1.15;;;1.15;;
8683;SDS011;4379;59.744;18.206;2023-08-30T10:04:22;1.25;;;1.00;;
8683;SDS011;4379;59.744;18.206;2023-08-30T10:06:51;1.13;;;1.13;;
8683;SDS011;4379;59.744;18.206;2023-08-30T10:09:20;0.98;;;0.98;;
8683;SDS011;4379;59.744;18.206;2023-08-30T10:11:48;1.02;;;1.02;;
8683;SDS011;4379;59.744;18.206;2023-08-30T10:14:16;1.00;;;1.00;;
8683;SDS011;4379;59.744;18.206;2023-08-30T10:16:45;2.85;;;2.75;;
8683;SDS011;4379;59.744;18.206;2023-08-30T10:19:14;2.85;;;2.75;;
8683;SDS011;4379;59.744;18.206;2023-08-30T10:22:05;1.67;;;1.67;;
8683;SDS011;4379;59.744;18.206;2023-08-30T10:24:39;1.25;;;1.20;;
8683;SDS011;4379;59.744;18.206;2023-08-30T10:27:31;1.00;;;1.00;;
8683;SDS011;4379;59.744;18.206;2023-08-30T10:30:02;0.93;;;0.93;;
8683;SDS011;4379;59.744;18.206;2023-08-30T10:32:32;0.90;;;0.90;;
8683;SDS011;4379;59.744;18.206;2023-08-30T10:35:05;0.70;;;0.70;;
8683;SDS011;4379;59.744;18.206;2023-08-30T10:37:33;1.15;;;1.10;;
8683;SDS011;4379;59.744;18.206;2023-08-30T10:40:03;0.80;;;0.80;;
8683;SDS011;4379;59.744;18.206;2023-08-30T10:42:31;1.20;;;1.20;;
8683;SDS011;4379;59.744;18.206;2023-08-30T10:44:59;0.80;;;0.80;;
8683;SDS011;4379;59.744;18.206;2023-08-30T10:47:40;0.90;;;0.90;;
8683;SDS011;4379;59.744;18.206;2023-08-30T10:50:09;1.45;;;0.75;;
8683;SDS011;4379;59.744;18.206;2023-08-30T10:52:37;1.38;;;0.98;;
8683;SDS011;4379;59.744;18.206;2023-08-30T10:55:06;1.00;;;1.00;;
8683;SDS011;4379;59.744;18.206;2023-08-30T10:57:41;1.00;;;1.00;;
8683;SDS011;4379;59.744;18.206;2023-08-30T11:02:45;1.10;;;1.02;;
8683;SDS011;4379;59.744;18.206;2023-08-30T11:05:15;0.82;;;0.82;;
8683;SDS011;4379;59.744;18.206;2023-08-30T11:07:44;0.95;;;0.95;;
8683;SDS011;4379;59.744;18.206;2023-08-30T11:10:12;0.85;;;0.85;;
8683;SDS011;4379;59.744;18.206;2023-08-30T11:12:40;1.17;;;1.15;;
8683;SDS011;4379;59.744;18.206;2023-08-30T11:15:09;0.82;;;0.82;;
8683;SDS011;4379;59.744;18.206;2023-08-30T11:17:39;1.10;;;1.10;;
8683;SDS011;4379;59.744;18.206;2023-08-30T11:20:07;1.17;;;1.08;;
8683;SDS011;4379;59.744;18.206;2023-08-30T11:22:39;1.10;;;1.00;;
8683;SDS011;4379;59.744;18.206;2023-08-30T11:25:14;1.08;;;1.00;;
8683;SDS011;4379;59.744;18.206;2023-08-30T11:27:43;1.35;;;1.25;;
8683;SDS011;4379;59.744;18.206;2023-08-30T11:30:12;0.93;;;0.93;;
8683;SDS011;4379;59.744;18.206;2023-08-30T11:32:40;1.10;;;1.10;;
8683;SDS011;4379;59.744;18.206;2023-08-30T11:35:12;1.00;;;1.00;;
8683;SDS011;4379;59.744;18.206;2023-08-30T11:37:40;1.00;;;1.00;;
8683;SDS011;4379;59.744;18.206;2023-08-30T11:40:08;1.15;;;1.10;;
8683;SDS011;4379;59.744;18.206;2023-08-30T11:42:38;1.02;;;1.02;;
8683;SDS011;4379;59.744;18.206;2023-08-30T11:45:06;1.45;;;1.35;;
8683;SDS011;4379;59.744;18.206;2023-08-30T11:47:34;1.20;;;1.20;;
8683;SDS011;4379;59.744;18.206;2023-08-30T11:50:02;1.30;;;1.20;;
8683;SDS011;4379;59.744;18.206;2023-08-30T11:52:30;1.95;;;1.30;;
8683;SDS011;4379;59.744;18.206;2023-08-30T11:54:59;1.48;;;1.40;;
8683;SDS011;4379;59.744;18.206;2023-08-30T11:57:27;1.75;;;1.20;;
8683;SDS011;4379;59.744;18.206;2023-08-30T11:59:55;1.33;;;0.90;;
8683;SDS011;4379;59.744;18.206;2023-08-30T12:02:22;1.38;;;1.30;;
8683;SDS011;4379;59.744;18.206;2023-08-30T12:04:50;1.05;;;1.05;;
8683;SDS011;4379;59.744;18.206;2023-08-30T12:07:23;1.30;;;1.20;;
8683;SDS011;4379;59.744;18.206;2023-08-30T12:09:52;1.60;;;1.20;;
8683;SDS011;4379;59.744;18.206;2023-08-30T12:12:22;1.42;;;1.33;;
8683;SDS011;4379;59.744;18.206;2023-08-30T12:14:54;1.20;;;1.20;;
8683;SDS011;4379;59.744;18.206;2023-08-30T12:17:25;1.38;;;1.33;;
8683;SDS011;4379;59.744;18.206;2023-08-30T12:19:59;1.20;;;1.20;;
8683;SDS011;4379;59.744;18.206;2023-08-30T12:22:38;1.23;;;1.23;;
8683;SDS011;4379;59.744;18.206;2023-08-30T12:25:19;1.35;;;1.35;;
8683;SDS011;4379;59.744;18.206;2023-08-30T12:27:47;1.27;;;1.27;;
8683;SDS011;4379;59.744;18.206;2023-08-30T12:30:16;1.63;;;1.52;;
8683;SDS011;4379;59.744;18.206;2023-08-30T12:32:44;3.42;;;1.20;;
8683;SDS011;4379;59.744;18.206;2023-08-30T12:35:12;1.33;;;1.33;;
8683;SDS011;4379;59.744;18.206;2023-08-30T12:37:40;1.20;;;1.20;;
8683;SDS011;4379;59.744;18.206;2023-08-30T12:40:07;1.50;;;0.88;;
8683;SDS011;4379;59.744;18.206;2023-08-30T12:42:36;1.08;;;1.08;;
8683;SDS011;4379;59.744;18.206;2023-08-30T12:45:07;1.10;;;0.98;;
8683;SDS011;4379;59.744;18.206;2023-08-30T12:47:35;1.10;;;1.10;;
8683;SDS011;4379;59.744;18.206;2023-08-30T12:50:04;1.15;;;1.15;;
8683;SDS011;4379;59.744;18.206;2023-08-30T12:52:32;0.90;;;0.90;;
8683;SDS011;4379;59.744;18.206;2023-08-30T12:54:59;0.98;;;0.98;;
8683;SDS011;4379;59.744;18.206;2023-08-30T12:57:26;1.20;;;1.15;;
8683;SDS011;4379;59.744;18.206;2023-08-30T12:59:57;0.90;;;0.90;;
8683;SDS011;4379;59.744;18.206;2023-08-30T13:02:24;0.90;;;0.90;;
8683;SDS011;4379;59.744;18.206;2023-08-30T13:04:52;1.00;;;1.00;;
8683;SDS011;4379;59.744;18.206;2023-08-30T13:07:19;0.90;;;0.90;;
8683;SDS011;4379;59.744;18.206;2023-08-30T13:09:47;0.90;;;0.90;;
8683;SDS011;4379;59.744;18.206;2023-08-30T13:12:14;1.00;;;0.90;;
8683;SDS011;4379;59.744;18.206;2023-08-30T13:14:41;1.13;;;1.08;;
8683;SDS011;4379;59.744;18.206;2023-08-30T13:17:09;1.45;;;1.20;;
8683;SDS011;4379;59.744;18.206;2023-08-30T13:19:36;0.85;;;0.85;;
8683;SDS011;4379;59.744;18.206;2023-08-30T13:22:04;1.40;;;1.30;;
8683;SDS011;4379;59.744;18.206;2023-08-30T13:24:32;1.15;;;1.10;;
8683;SDS011;4379;59.744;18.206;2023-08-30T13:26:59;1.23;;;1.10;;
8683;SDS011;4379;59.744;18.206;2023-08-30T13:29:26;1.60;;;1.25;;
8683;SDS011;4379;59.744;18.206;2023-08-30T13:31:54;1.75;;;1.20;;
8683;SDS011;4379;59.744;18.206;2023-08-30T13:34:21;2.75;;;1.40;;
8683;SDS011;4379;59.744;18.206;2023-08-30T13:36:49;1.52;;;1.27;;
8683;SDS011;4379;59.744;18.206;2023-08-30T13:39:17;0.90;;;0.90;;
8683;SDS011;4379;59.744;18.206;2023-08-30T13:41:47;1.58;;;1.13;;
8683;SDS011;4379;59.744;18.206;2023-08-30T13:44:15;1.20;;;1.10;;
8683;SDS011;4379;59.744;18.206;2023-08-30T13:46:43;1.33;;;1.23;;
8683;SDS011;4379;59.744;18.206;2023-08-30T13:49:14;1.10;;;1.10;;
8683;SDS011;4379;59.744;18.206;2023-08-30T13:51:42;1.20;;;1.10;;
8683;SDS011;4379;59.744;18.206;2023-08-30T13:54:10;0.90;;;0.90;;
8683;SDS011;4379;59.744;18.206;2023-08-30T13:56:38;1.88;;;1.05;;
8683;SDS011;4379;59.744;18.206;2023-08-30T13:59:05;1.17;;;1.10;;
8683;SDS011;4379;59.744;18.206;2023-08-30T14:01:33;1.30;;;1.20;;
8683;SDS011;4379;59.744;18.206;2023-08-30T14:04:03;1.08;;;1.08;;
8683;SDS011;4379;59.744;18.206;2023-08-30T14:06:31;1.35;;;1.25;;
8683;SDS011;4379;59.744;18.206;2023-08-30T14:08:59;1.98;;;1.00;;
8683;SDS011;4379;59.744;18.206;2023-08-30T14:11:27;1.80;;;1.00;;
8683;SDS011;4379;59.744;18.206;2023-08-30T14:13:54;0.90;;;0.90;;
8683;SDS011;4379;59.744;18.206;2023-08-30T14:16:22;1.20;;;1.10;;
8683;SDS011;4379;59.744;18.206;2023-08-30T14:18:55;1.02;;;1.00;;
8683;SDS011;4379;59.744;18.206;2023-08-30T14:21:26;0.90;;;0.90;;
8683;SDS011;4379;59.744;18.206;2023-08-30T14:23:54;0.90;;;0.90;;
8683;SDS011;4379;59.744;18.206;2023-08-30T14:26:22;2.20;;;1.15;;
8683;SDS011;4379;59.744;18.206;2023-08-30T14:28:52;0.90;;;0.90;;
8683;SDS011;4379;59.744;18.206;2023-08-30T14:31:19;1.05;;;0.98;;
8683;SDS011;4379;59.744;18.206;2023-08-30T14:33:49;2.72;;;1.17;;
8683;SDS011;4379;59.744;18.206;2023-08-30T14:36:24;0.95;;;0.95;;
8683;SDS011;4379;59.744;18.206;2023-08-30T14:38:54;0.90;;;0.90;;
8683;SDS011;4379;59.744;18.206;2023-08-30T14:41:22;1.30;;;1.00;;
8683;SDS011;4379;59.744;18.206;2023-08-30T14:43:50;2.03;;;1.10;;
8683;SDS011;4379;59.744;18.206;2023-08-30T14:46:17;0.90;;;0.90;;
8683;SDS011;4379;59.744;18.206;2023-08-30T14:48:50;1.38;;;0.98;;
8683;SDS011;4379;59.744;18.206;2023-08-30T14:51:17;0.80;;;0.80;;
8683;SDS011;4379;59.744;18.206;2023-08-30T14:53:44;0.88;;;0.88;;
8683;SDS011;4379;59.744;18.206;2023-08-30T14:56:12;0.82;;;0.82;;
8683;SDS011;4379;59.744;18.206;2023-08-30T14:58:39;0.98;;;0.98;;
8683;SDS011;4379;59.744;18.206;2023-08-30T15:01:09;1.13;;;0.98;;
8683;SDS011;4379;59.744;18.206;2023-08-30T15:03:37;1.00;;;0.90;;
8683;SDS011;4379;59.744;18.206;2023-08-30T15:06:04;1.35;;;0.90;;
8683;SDS011;4379;59.744;18.206;2023-08-30T15:08:32;1.33;;;0.93;;
8683;SDS011;4379;59.744;18.206;2023-08-30T15:11:00;0.80;;;0.80;;
8683;SDS011;4379;59.744;18.206;2023-08-30T15:13:27;3.60;;;0.90;;
8683;SDS011;4379;59.744;18.206;2023-08-30T15:15:55;1.13;;;0.75;;
8683;SDS011;4379;59.744;18.206;2023-08-30T15:18:22;2.08;;;0.80;;